Time;durP1;ratioP1;P1;durP2;ratioP2;P2;SDS_P1;SDS_P2;PMS_P1;PMS_P2;Temp;Humidity;BMP_temperature;BMP_pressure;BME280_temperature;BME280_humidity;BME280_pressure;Samples;Min_cycle;Max_cycle;Signal;HPM_P1;HPM_P2
2022/11/16 00:01:06;;;;;;;;;;;;;;;;;;5033745;28;1662;-47
2022/11/16 00:03:33;;;;;;;;;;;;;;;;;;5033821;28;1968;-51
2022/11/16 00:06:02;;;;;;;;;;;;;;;;;;5033634;28;1972;-48
2022/11/16 00:08:30;;;;;;;;;;;;;;;;;;5033493;28;1998;-46
2022/11/16 00:11:05;;;;;;;;;;;;;;;;;;5033631;28;1775;-50
2022/11/16 00:13:33;;;;;;;;;;;;;;;;;;5033307;28;1920;-47
2022/11/16 00:16:00;;;;;;;;;;;;;;;;;;5033519;28;1922;-47
2022/11/16 00:18:28;;;;;;;;;;;;;;;;;;5032502;28;1989;-48
2022/11/16 00:20:56;;;;;;;;;;;;;;;;;;5033480;28;2038;-50
2022/11/16 00:23:24;;;;;;;;;;;;;;;;;;5033345;28;1813;-46
2022/11/16 00:25:52;;;;;;;;;;;;;;;;;;5033206;28;2184;-48
2022/11/16 00:28:19;;;;;;;;;;;;;;;;;;5033514;28;2107;-50
2022/11/16 00:30:47;;;;;;;;;;;;;;;;;;5033184;28;2113;-50
2022/11/16 00:33:15;;;;;;;;;;;;;;;;;;5033310;28;2068;-50
2022/11/16 00:35:42;;;;;;;;;;;;;;;;;;5033208;28;1471;-47
2022/11/16 00:38:10;;;;;;;;;;;;;;;;;;5032763;28;1958;-48
2022/11/16 00:40:37;;;;;;;;;;;;;;;;;;5033023;28;1956;-48
2022/11/16 00:43:05;;;;;;;;;;;;;;;;;;5033181;28;2069;-48
2022/11/16 00:45:33;;;;;;;;;;;;;;;;;;5051463;28;2098;-47
2022/11/16 00:48:00;;;;;;;;;;;;;;;;;;5051366;28;1794;-48
2022/11/16 00:50:28;;;;;;;;;;;;;;;;;;5051312;28;1950;-48
2022/11/16 00:52:56;;;;;;;;;;;;;;;;;;5051058;28;2159;-47
2022/11/16 00:55:23;;;;;;;;;;;;;;;;;;5051732;28;1981;-46
2022/11/16 00:57:51;;;;;;;;;;;;;;;;;;5051840;28;1908;-49
2022/11/16 01:00:21;;;;;;;;;;;;;;;;;;5052415;28;1832;-47
2022/11/16 01:02:51;;;;;;;;;;;;;;;;;;5051415;28;1957;-52
2022/11/16 01:05:18;;;;;;;;;;;;;;;;;;5051045;28;1942;-50
2022/11/16 01:07:46;;;;;;;;;;;;;;;;;;5052336;28;2177;-49
2022/11/16 01:10:15;;;;;;;;;;;;;;;;;;5052193;28;1980;-49
2022/11/16 01:12:44;;;;;;;;;;;;;;;;;;5052372;28;1977;-47
2022/11/16 01:15:13;;;;;;;;;;;;;;;;;;5052181;28;1948;-46
2022/11/16 01:17:41;;;;;;;;;;;;;;;;;;5052041;28;1820;-47
2022/11/16 01:20:12;;;;;;;;;;;;;;;;;;5051826;28;1992;-51
2022/11/16 01:22:40;;;;;;;;;;;;;;;;;;5050964;28;1734;-49
2022/11/16 01:25:08;;;;;;;;;;;;;;;;;;5034470;28;2197;-47
2022/11/16 01:27:36;;;;;;;;;;;;;;;;;;5050736;28;2026;-47
2022/11/16 01:30:07;;;;;;;;;;;;;;;;;;5050570;28;2013;-52
2022/11/16 01:32:39;;;;;;;;;;;;;;;;;;5051808;28;1985;-48
2022/11/16 01:35:06;;;;;;;;;;;;;;;;;;5051955;28;1825;-47
2022/11/16 01:37:34;;;;;;;;;;;;;;;;;;5050386;28;1983;-50
2022/11/16 01:40:01;;;;;;;;;;;;;;;;;;5050558;28;2012;-51
2022/11/16 01:42:30;;;;;;;;;;;;;;;;;;5051698;28;2079;-48
2022/11/16 01:45:02;;;;;;;;;;;;;;;;;;5034260;28;2171;-49
2022/11/16 01:47:31;;;;;;;;;;;;;;;;;;5031123;28;1826;-46
2022/11/16 01:50:10;;;;;;;;;;;;;;;;;;5050380;28;1918;-51
2022/11/16 01:52:43;;;;;;;;;;;;;;;;;;5050285;28;2103;-46
2022/11/16 01:55:12;;;;;;;;;;;;;;;;;;5050209;28;1965;-48
2022/11/16 01:57:59;;;;;;;;;;;;;;;;;;5051144;28;1896;-48
2022/11/16 02:00:29;;;;;;;;;;;;;;;;;;5066790;28;2479;-48
2022/11/16 02:03:11;;;;;;;;;;;;;;;;;;5050057;28;2028;-47
2022/11/16 02:05:54;;;;;;;;;;;;;;;;;;5066601;28;1939;-50
2022/11/16 02:11:23;;;;;;;;;;;;;;;;;;5049963;28;1963;-46
2022/11/16 02:13:51;;;;;;;;;;;;;;;;;;5051363;28;2018;-49
2022/11/16 02:16:25;;;;;;;;;;;;;;;;;;5049858;28;1889;-46
2022/11/16 02:18:59;;;;;;;;;;;;;;;;;;5051210;28;2146;-50
2022/11/16 02:21:34;;;;;;;;;;;;;;;;;;5046371;28;1715;-47
2022/11/16 02:24:11;;;;;;;;;;;;;;;;;;5029709;28;1915;-50
2022/11/16 02:26:38;;;;;;;;;;;;;;;;;;5029794;28;1929;-48
2022/11/16 02:29:12;;;;;;;;;;;;;;;;;;5031217;28;2144;-48
2022/11/16 02:31:48;;;;;;;;;;;;;;;;;;5029958;28;2026;-45
2022/11/16 02:34:17;;;;;;;;;;;;;;;;;;5030920;28;2052;-47
2022/11/16 02:36:47;;;;;;;;;;;;;;;;;;5031205;28;1781;-50
2022/11/16 02:39:18;;;;;;;;;;;;;;;;;;5029620;28;2191;-49
2022/11/16 02:41:49;;;;;;;;;;;;;;;;;;5048137;28;1907;-45
2022/11/16 02:44:29;;;;;;;;;;;;;;;;;;5043979;28;2541;-47
2022/11/16 02:46:58;;;;;;;;;;;;;;;;;;5055002;28;1939;-49
2022/11/16 02:49:26;;;;;;;;;;;;;;;;;;5055070;28;2133;-51
2022/11/16 02:51:55;;;;;;;;;;;;;;;;;;5053543;28;1971;-46
2022/11/16 02:54:23;;;;;;;;;;;;;;;;;;5055065;28;2216;-48
2022/11/16 02:57:03;;;;;;;;;;;;;;;;;;5053536;28;1884;-51
2022/11/16 02:59:35;;;;;;;;;;;;;;;;;;5053311;28;2275;-48
2022/11/16 03:02:21;;;;;;;;;;;;;;;;;;5053442;28;1920;-50
2022/11/16 03:04:51;;;;;;;;;;;;;;;;;;5055145;28;2021;-47
2022/11/16 03:07:21;;;;;;;;;;;;;;;;;;5053729;28;1455;-48
2022/11/16 03:09:50;;;;;;;;;;;;;;;;;;5053417;28;1937;-49
2022/11/16 03:12:21;;;;;;;;;;;;;;;;;;5020403;28;2263;-50
2022/11/16 03:14:52;;;;;;;;;;;;;;;;;;5053300;28;1969;-50
2022/11/16 03:17:22;;;;;;;;;;;;;;;;;;5054710;28;1807;-50
2022/11/16 03:20:00;;;;;;;;;;;;;;;;;;5053226;28;1926;-52
2022/11/16 03:22:35;;;;;;;;;;;;;;;;;;5053211;28;2027;-49
2022/11/16 03:25:03;;;;;;;;;;;;;;;;;;5052747;28;2162;-48
2022/11/16 03:27:37;;;;;;;;;;;;;;;;;;5054095;28;1873;-46
2022/11/16 03:30:09;;;;;;;;;;;;;;;;;;5053039;28;2022;-48
2022/11/16 03:32:50;;;;;;;;;;;;;;;;;;5054231;28;1905;-49
2022/11/16 03:35:22;;;;;;;;;;;;;;;;;;5052993;28;1958;-48
2022/11/16 03:37:51;;;;;;;;;;;;;;;;;;5054439;28;2004;-49
2022/11/16 03:40:22;;;;;;;;;;;;;;;;;;5052835;28;2025;-50
2022/11/16 03:42:50;;;;;;;;;;;;;;;;;;5054276;28;1885;-49
2022/11/16 03:45:18;;;;;;;;;;;;;;;;;;5052564;28;2134;-51
2022/11/16 03:47:48;;;;;;;;;;;;;;;;;;5052624;28;1895;-47
2022/11/16 03:50:16;;;;;;;;;;;;;;;;;;5052312;28;1976;-49
2022/11/16 03:52:43;;;;;;;;;;;;;;;;;;5051437;28;2078;-49
2022/11/16 03:55:12;;;;;;;;;;;;;;;;;;5052214;28;1814;-51
2022/11/16 03:57:42;;;;;;;;;;;;;;;;;;5052291;28;2076;-50
2022/11/16 04:00:10;;;;;;;;;;;;;;;;;;5053618;28;1906;-49
2022/11/16 04:02:41;;;;;;;;;;;;;;;;;;5052216;28;2000;-49
2022/11/16 04:24:50;;;;;;;;;;;;;;;;;;5053161;28;1603;-48
2022/11/16 04:30:04;;;;;;;;;;;;;;;;;;5053012;28;2152;-48
2022/11/16 04:37:56;;;;;;;;;;;;;;;;;;5052768;28;2086;-48
2022/11/16 04:40:30;;;;;;;;;;;;;;;;;;5051879;28;2144;-50
2022/11/16 04:42:59;;;;;;;;;;;;;;;;;;5051722;28;1926;-47
2022/11/16 04:48:23;;;;;;;;;;;;;;;;;;5031736;28;1915;-49
2022/11/16 04:50:52;;;;;;;;;;;;;;;;;;5031778;28;2166;-50
2022/11/16 04:53:21;;;;;;;;;;;;;;;;;;5031578;28;1968;-48
2022/11/16 04:55:57;;;;;;;;;;;;;;;;;;5031407;28;2145;-48
2022/11/16 04:58:28;;;;;;;;;;;;;;;;;;5031388;28;1830;-51
2022/11/16 05:00:55;;;;;;;;;;;;;;;;;;5031331;28;2107;-48
2022/11/16 05:03:22;;;;;;;;;;;;;;;;;;5032787;28;2109;-48
2022/11/16 05:05:49;;;;;;;;;;;;;;;;;;5032394;28;2166;-48
2022/11/16 05:08:19;;;;;;;;;;;;;;;;;;5031171;28;2150;-50
2022/11/16 05:10:49;;;;;;;;;;;;;;;;;;5031529;28;1910;-51
2022/11/16 05:13:19;;;;;;;;;;;;;;;;;;5047620;28;1916;-46
2022/11/16 05:15:53;;;;;;;;;;;;;;;;;;5031147;28;2014;-48
2022/11/16 05:18:21;;;;;;;;;;;;;;;;;;5031267;28;2005;-51
2022/11/16 05:21:00;;;;;;;;;;;;;;;;;;5030852;28;1944;-50
2022/11/16 05:26:22;;;;;;;;;;;;;;;;;;5030996;28;1895;-51
2022/11/16 05:28:52;;;;;;;;;;;;;;;;;;5031138;28;1959;-49
2022/11/16 05:31:20;;;;;;;;;;;;;;;;;;5030868;28;1897;-49
2022/11/16 05:33:47;;;;;;;;;;;;;;;;;;5032166;28;1979;-49
2022/11/16 05:36:17;;;;;;;;;;;;;;;;;;5031819;28;2017;-48
2022/11/16 05:38:45;;;;;;;;;;;;;;;;;;5030701;28;1897;-51
2022/11/16 05:41:13;;;;;;;;;;;;;;;;;;5030749;28;1915;-49
2022/11/16 05:43:41;;;;;;;;;;;;;;;;;;5050539;28;2091;-48
2022/11/16 05:46:17;;;;;;;;;;;;;;;;;;5050434;28;1972;-48
2022/11/16 05:48:44;;;;;;;;;;;;;;;;;;5050192;28;2206;-50
2022/11/16 05:51:12;;;;;;;;;;;;;;;;;;5051733;28;2121;-46
2022/11/16 05:53:40;;;;;;;;;;;;;;;;;;5051605;28;1985;-46
2022/11/16 05:56:13;;;;;;;;;;;;;;;;;;5050327;28;2025;-51
2022/11/16 05:58:43;;;;;;;;;;;;;;;;;;5050045;28;1939;-52
2022/11/16 06:01:10;;;;;;;;;;;;;;;;;;5050283;28;2051;-48
2022/11/16 06:03:38;;;;;;;;;;;;;;;;;;5051341;28;1869;-48
2022/11/16 06:06:05;;;;;;;;;;;;;;;;;;5051201;28;2192;-50
2022/11/16 06:08:34;;;;;;;;;;;;;;;;;;5050167;28;2107;-50
2022/11/16 06:11:06;;;;;;;;;;;;;;;;;;5049872;28;1968;-46
2022/11/16 06:13:35;;;;;;;;;;;;;;;;;;5051296;28;2217;-50
2022/11/16 06:16:03;;;;;;;;;;;;;;;;;;5049088;28;2168;-49
2022/11/16 06:18:31;;;;;;;;;;;;;;;;;;5049819;28;1944;-51
2022/11/16 06:20:59;;;;;;;;;;;;;;;;;;5050083;28;1936;-50
2022/11/16 06:23:26;;;;;;;;;;;;;;;;;;5049759;28;2011;-52
2022/11/16 06:25:54;;;;;;;;;;;;;;;;;;5050074;28;2042;-46
2022/11/16 06:28:24;;;;;;;;;;;;;;;;;;5049909;28;1792;-50
2022/11/16 06:30:53;;;;;;;;;;;;;;;;;;5049827;28;1965;-48
2022/11/16 06:33:22;;;;;;;;;;;;;;;;;;5049686;28;1967;-49
2022/11/16 06:35:50;;;;;;;;;;;;;;;;;;5066363;28;2251;-51
2022/11/16 06:38:22;;;;;;;;;;;;;;;;;;5049937;28;2206;-52
2022/11/16 06:40:52;;;;;;;;;;;;;;;;;;5049823;28;1837;-51
2022/11/16 06:43:22;;;;;;;;;;;;;;;;;;5049224;28;2374;-50
2022/11/16 06:45:51;;;;;;;;;;;;;;;;;;5047892;28;1973;-49
2022/11/16 06:48:18;;;;;;;;;;;;;;;;;;5048414;28;2052;-48
2022/11/16 06:50:47;;;;;;;;;;;;;;;;;;5047279;28;2056;-46
2022/11/16 06:53:16;;;;;;;;;;;;;;;;;;5047887;28;2007;-48
2022/11/16 06:55:45;;;;;;;;;;;;;;;;;;5047592;28;2043;-49
2022/11/16 06:58:12;;;;;;;;;;;;;;;;;;5047767;28;1699;-47
2022/11/16 07:00:41;;;;;;;;;;;;;;;;;;5048934;28;1947;-51
2022/11/16 07:03:09;;;;;;;;;;;;;;;;;;5049532;28;2129;-48
2022/11/16 07:05:38;;;;;;;;;;;;;;;;;;5050735;28;2006;-48
2022/11/16 07:08:09;;;;;;;;;;;;;;;;;;5049313;28;1931;-46
2022/11/16 07:10:37;;;;;;;;;;;;;;;;;;5049132;28;2054;-49
2022/11/16 07:13:06;;;;;;;;;;;;;;;;;;5049270;28;2328;-49
2022/11/16 07:15:36;;;;;;;;;;;;;;;;;;5049445;28;1932;-47
2022/11/16 07:18:07;;;;;;;;;;;;;;;;;;5049296;28;2469;-46
2022/11/16 07:20:37;;;;;;;;;;;;;;;;;;5049221;28;2135;-49
2022/11/16 07:23:04;;;;;;;;;;;;;;;;;;5049374;28;2073;-52
2022/11/16 07:25:36;;;;;;;;;;;;;;;;;;5049333;28;1514;-49
2022/11/16 07:28:05;;;;;;;;;;;;;;;;;;5052308;28;1999;-49
2022/11/16 07:30:33;;;;;;;;;;;;;;;;;;5053305;28;1929;-47
2022/11/16 07:33:12;;;;;;;;;;;;;;;;;;5054029;28;2068;-49
2022/11/16 07:36:13;;;;;;;;;;;;;;;;;;5020340;28;1980;-52
2022/11/16 07:38:40;;;;;;;;;;;;;;;;;;5052931;28;2164;-47
2022/11/16 07:41:09;;;;;;;;;;;;;;;;;;5052874;28;1990;-51
2022/11/16 07:43:44;;;;;;;;;;;;;;;;;;5052755;28;2044;-47
2022/11/16 07:46:18;;;;;;;;;;;;;;;;;;5052737;28;2013;-49
2022/11/16 07:49:10;;;;;;;;;;;;;;;;;;5052776;28;2001;-50
2022/11/16 07:51:45;;;;;;;;;;;;;;;;;;5069260;28;1982;-48
2022/11/16 07:54:44;;;;;;;;;;;;;;;;;;5034785;28;1983;-46
2022/11/16 07:57:13;;;;;;;;;;;;;;;;;;5052723;28;2063;-49
2022/11/16 07:59:41;;;;;;;;;;;;;;;;;;5052205;28;2071;-50
2022/11/16 08:02:10;;;;;;;;;;;;;;;;;;5052418;28;1757;-48
2022/11/16 08:04:39;;;;;;;;;;;;;;;;;;5052448;28;2025;-48
2022/11/16 08:07:07;;;;;;;;;;;;;;;;;;5052325;28;2055;-47
2022/11/16 08:09:42;;;;;;;;;;;;;;;;;;5053499;28;2073;-49
2022/11/16 08:12:12;;;;;;;;;;;;;;;;;;5052249;28;1890;-48
2022/11/16 08:14:40;;;;;;;;;;;;;;;;;;5051966;28;1975;-49
2022/11/16 08:17:07;;;;;;;;;;;;;;;;;;5052236;28;2408;-48
2022/11/16 08:19:39;;;;;;;;;;;;;;;;;;5052042;28;2189;-49
2022/11/16 08:22:07;;;;;;;;;;;;;;;;;;5068557;28;1917;-52
2022/11/16 08:24:37;;;;;;;;;;;;;;;;;;5052163;28;1789;-51
2022/11/16 08:27:04;;;;;;;;;;;;;;;;;;5051741;28;1963;-49
2022/11/16 08:29:31;;;;;;;;;;;;;;;;;;5052046;28;1931;-47
2022/11/16 08:32:04;;;;;;;;;;;;;;;;;;5051741;28;2116;-47
2022/11/16 08:34:33;;;;;;;;;;;;;;;;;;5051935;28;1989;-50
2022/11/16 08:37:02;;;;;;;;;;;;;;;;;;5035737;28;2263;-48
2022/11/16 08:39:38;;;;;;;;;;;;;;;;;;5050817;28;2088;-51
2022/11/16 08:42:07;;;;;;;;;;;;;;;;;;5051268;28;2023;-45
2022/11/16 08:44:35;;;;;;;;;;;;;;;;;;5051487;28;2047;-46
2022/11/16 08:47:07;;;;;;;;;;;;;;;;;;5052828;28;1994;-48
2022/11/16 08:49:43;;;;;;;;;;;;;;;;;;5051492;28;1901;-49
2022/11/16 08:52:16;;;;;;;;;;;;;;;;;;5051475;28;1854;-47
2022/11/16 08:54:43;;;;;;;;;;;;;;;;;;5051291;28;2119;-49
2022/11/16 08:57:10;;;;;;;;;;;;;;;;;;5051376;28;1821;-49
2022/11/16 08:59:40;;;;;;;;;;;;;;;;;;5052560;28;2044;-49
2022/11/16 09:02:11;;;;;;;;;;;;;;;;;;5051190;28;2028;-48
2022/11/16 09:04:38;;;;;;;;;;;;;;;;;;5052500;28;2158;-50
2022/11/16 09:07:05;;;;;;;;;;;;;;;;;;5052384;28;2017;-50
2022/11/16 09:09:34;;;;;;;;;;;;;;;;;;5052416;28;1836;-49
2022/11/16 09:12:02;;;;;;;;;;;;;;;;;;5052122;28;2025;-47
2022/11/16 09:14:29;;;;;;;;;;;;;;;;;;5052357;28;2046;-51
2022/11/16 09:16:56;;;;;;;;;;;;;;;;;;5052262;28;2137;-48
2022/11/16 09:19:27;;;;;;;;;;;;;;;;;;5052341;28;1879;-50
2022/11/16 09:21:54;;;;;;;;;;;;;;;;;;5052443;28;1733;-49
2022/11/16 09:24:22;;;;;;;;;;;;;;;;;;5052379;28;2010;-48
2022/11/16 09:26:49;;;;;;;;;;;;;;;;;;5052114;28;1839;-46
2022/11/16 09:29:16;;;;;;;;;;;;;;;;;;5051777;28;2169;-51
2022/11/16 09:31:45;;;;;;;;;;;;;;;;;;5052015;28;2000;-47
2022/11/16 09:34:12;;;;;;;;;;;;;;;;;;5051691;28;2032;-46
2022/11/16 09:36:39;;;;;;;;;;;;;;;;;;5052097;28;2024;-50
2022/11/16 09:39:07;;;;;;;;;;;;;;;;;;5052018;28;1892;-48
2022/11/16 09:42:19;;;;;;;;;;;;;;;;;;5051838;28;1862;-49
2022/11/16 09:44:59;;;;;;;;;;;;;;;;;;5037397;28;2010;-49
2022/11/16 09:47:44;;;;;;;;;;;;;;;;;;5031951;28;1957;-46
2022/11/16 09:50:19;;;;;;;;;;;;;;;;;;5031688;28;1978;-48
2022/11/16 09:52:47;;;;;;;;;;;;;;;;;;5031580;28;2068;-49
2022/11/16 09:55:23;;;;;;;;;;;;;;;;;;5031788;28;2058;-47
2022/11/16 09:57:52;;;;;;;;;;;;;;;;;;5031759;28;2077;-51
2022/11/16 10:00:24;;;;;;;;;;;;;;;;;;5031585;28;1975;-50
2022/11/16 10:02:57;;;;;;;;;;;;;;;;;;5031809;28;2124;-50
2022/11/16 10:05:31;;;;;;;;;;;;;;;;;;5031629;28;1966;-49
2022/11/16 10:08:05;;;;;;;;;;;;;;;;;;5031272;28;2154;-51
2022/11/16 10:10:37;;;;;;;;;;;;;;;;;;5031580;28;1939;-47
2022/11/16 10:13:10;;;;;;;;;;;;;;;;;;5031529;28;2239;-49
2022/11/16 10:15:42;;;;;;;;;;;;;;;;;;5031037;28;1906;-51
2022/11/16 10:18:15;;;;;;;;;;;;;;;;;;5031395;28;1972;-47
2022/11/16 10:20:45;;;;;;;;;;;;;;;;;;5031124;28;1927;-49
2022/11/16 10:23:18;;;;;;;;;;;;;;;;;;5031305;28;1809;-50
2022/11/16 10:25:50;;;;;;;;;;;;;;;;;;5031132;28;2001;-48
2022/11/16 10:28:35;;;;;;;;;;;;;;;;;;5031122;28;2075;-48
2022/11/16 10:31:03;;;;;;;;;;;;;;;;;;5031136;28;2064;-48
2022/11/16 10:33:34;;;;;;;;;;;;;;;;;;5031239;28;1919;-49
2022/11/16 10:36:09;;;;;;;;;;;;;;;;;;5031184;28;1977;-48
2022/11/16 10:38:37;;;;;;;;;;;;;;;;;;5031204;28;1997;-49
2022/11/16 10:41:04;;;;;;;;;;;;;;;;;;5030971;28;1904;-50
2022/11/16 10:43:32;;;;;;;;;;;;;;;;;;5035109;28;1994;-50
2022/11/16 10:46:15;;;;;;;;;;;;;;;;;;5050795;28;1931;-50
2022/11/16 10:48:54;;;;;;;;;;;;;;;;;;5050930;28;1873;-50
2022/11/16 10:51:21;;;;;;;;;;;;;;;;;;5050941;28;1993;-49
2022/11/16 10:53:53;;;;;;;;;;;;;;;;;;5050967;28;1825;-50
2022/11/16 10:56:21;;;;;;;;;;;;;;;;;;5050554;28;1967;-48
2022/11/16 10:58:53;;;;;;;;;;;;;;;;;;5050728;28;2306;-48
2022/11/16 11:01:39;;;;;;;;;;;;;;;;;;5050640;28;2025;-48
2022/11/16 11:04:18;;;;;;;;;;;;;;;;;;5054195;28;2021;-50
2022/11/16 11:06:46;;;;;;;;;;;;;;;;;;5054675;28;2005;-50
2022/11/16 11:09:24;;;;;;;;;;;;;;;;;;5055240;28;1998;-51
2022/11/16 11:14:59;;;;;;;;;;;;;;;;;;5054446;28;2081;-48
2022/11/16 11:17:27;;;;;;;;;;;;;;;;;;5054501;28;1977;-51
2022/11/16 11:19:59;;;;;;;;;;;;;;;;;;5054423;28;2076;-45
2022/11/16 11:22:29;;;;;;;;;;;;;;;;;;5054320;28;1754;-50
2022/11/16 11:24:57;;;;;;;;;;;;;;;;;;5054568;28;2077;-49
2022/11/16 11:27:27;;;;;;;;;;;;;;;;;;5054601;28;1975;-49
2022/11/16 11:29:57;;;;;;;;;;;;;;;;;;5054294;28;2037;-50
2022/11/16 11:32:37;;;;;;;;;;;;;;;;;;5054443;28;1921;-48
2022/11/16 11:35:05;;;;;;;;;;;;;;;;;;5053947;28;2333;-51
2022/11/16 11:37:35;;;;;;;;;;;;;;;;;;5054053;28;2072;-48
2022/11/16 11:40:15;;;;;;;;;;;;;;;;;;5053796;28;1943;-50
2022/11/16 11:42:50;;;;;;;;;;;;;;;;;;5054210;28;2013;-48
2022/11/16 11:45:18;;;;;;;;;;;;;;;;;;5053705;28;2020;-50
2022/11/16 11:47:52;;;;;;;;;;;;;;;;;;5054076;28;1792;-50
2022/11/16 11:50:30;;;;;;;;;;;;;;;;;;5054077;28;2008;-49
2022/11/16 11:53:15;;;;;;;;;;;;;;;;;;5053970;28;1926;-45
2022/11/16 11:55:45;;;;;;;;;;;;;;;;;;5053564;28;1989;-49
2022/11/16 11:58:13;;;;;;;;;;;;;;;;;;5053763;28;2119;-48
2022/11/16 12:00:56;;;;;;;;;;;;;;;;;;5053521;28;1994;-47
2022/11/16 12:03:49;;;;;;;;;;;;;;;;;;5053900;28;1844;-49
2022/11/16 12:06:55;;;;;;;;;;;;;;;;;;5051909;28;1918;-48
2022/11/16 12:09:22;;;;;;;;;;;;;;;;;;5011887;28;1846;-47
2022/11/16 12:11:56;;;;;;;;;;;;;;;;;;5011640;28;2001;-49
2022/11/16 12:14:26;;;;;;;;;;;;;;;;;;5032471;28;1498;-48
2022/11/16 12:16:59;;;;;;;;;;;;;;;;;;5053507;28;1943;-47
2022/11/16 12:19:45;;;;;;;;;;;;;;;;;;5053441;28;1884;-49
2022/11/16 12:22:27;;;;;;;;;;;;;;;;;;5053092;28;2219;-46
2022/11/16 12:25:13;;;;;;;;;;;;;;;;;;5053483;28;1855;-46
2022/11/16 12:27:41;;;;;;;;;;;;;;;;;;5053294;28;1890;-47
2022/11/16 12:30:18;;;;;;;;;;;;;;;;;;5053235;28;2236;-51
2022/11/16 12:33:04;;;;;;;;;;;;;;;;;;5053018;28;2093;-47
2022/11/16 12:35:49;;;;;;;;;;;;;;;;;;5053082;28;1989;-45
2022/11/16 12:38:36;;;;;;;;;;;;;;;;;;5053088;28;1879;-48
2022/11/16 12:41:03;;;;;;;;;;;;;;;;;;5052826;28;1822;-50
2022/11/16 12:43:46;;;;;;;;;;;;;;;;;;5052693;28;2078;-50
2022/11/16 12:46:24;;;;;;;;;;;;;;;;;;5052998;28;1384;-47
2022/11/16 12:48:54;;;;;;;;;;;;;;;;;;5052640;28;1954;-50
2022/11/16 12:51:21;;;;;;;;;;;;;;;;;;5053288;28;1987;-47
2022/11/16 12:54:10;;;;;;;;;;;;;;;;;;5052499;28;2183;-49
2022/11/16 12:56:56;;;;;;;;;;;;;;;;;;5052295;28;2228;-50
2022/11/16 12:59:42;;;;;;;;;;;;;;;;;;5052708;28;2110;-48
2022/11/16 13:02:27;;;;;;;;;;;;;;;;;;5052479;28;2278;-47
2022/11/16 13:05:15;;;;;;;;;;;;;;;;;;5051510;28;1981;-49
2022/11/16 13:08:02;;;;;;;;;;;;;;;;;;5022047;28;1957;-48
2022/11/16 13:10:32;;;;;;;;;;;;;;;;;;5041410;28;2104;-46
2022/11/16 13:13:02;;;;;;;;;;;;;;;;;;5051022;28;2060;-50
2022/11/16 13:15:50;;;;;;;;;;;;;;;;;;5052266;28;1966;-49
2022/11/16 13:18:18;;;;;;;;;;;;;;;;;;5052152;28;2067;-47
2022/11/16 13:20:49;;;;;;;;;;;;;;;;;;5052383;28;2089;-51
2022/11/16 13:23:19;;;;;;;;;;;;;;;;;;5052013;28;1876;-49
2022/11/16 13:25:57;;;;;;;;;;;;;;;;;;5051698;28;1863;-46
2022/11/16 13:28:47;;;;;;;;;;;;;;;;;;5052386;28;1845;-48
2022/11/16 13:31:30;;;;;;;;;;;;;;;;;;5052041;28;2218;-50
2022/11/16 13:34:00;;;;;;;;;;;;;;;;;;5052163;28;2048;-49
2022/11/16 13:36:38;;;;;;;;;;;;;;;;;;5051797;28;2030;-50
2022/11/16 13:39:10;;;;;;;;;;;;;;;;;;5052074;28;1853;-51
2022/11/16 13:41:40;;;;;;;;;;;;;;;;;;5051451;28;2094;-47
2022/11/16 13:44:11;;;;;;;;;;;;;;;;;;5051839;28;1976;-49
2022/11/16 13:46:44;;;;;;;;;;;;;;;;;;5051858;28;2087;-46
2022/11/16 13:49:35;;;;;;;;;;;;;;;;;;5051639;28;1839;-49
2022/11/16 13:52:07;;;;;;;;;;;;;;;;;;5051657;28;1909;-50
2022/11/16 13:54:50;;;;;;;;;;;;;;;;;;5051898;28;2109;-50
2022/11/16 13:57:18;;;;;;;;;;;;;;;;;;5051417;28;1969;-48
2022/11/16 13:59:46;;;;;;;;;;;;;;;;;;5051457;28;1909;-49
2022/11/16 14:02:31;;;;;;;;;;;;;;;;;;5050378;28;2152;-50
2022/11/16 14:05:00;;;;;;;;;;;;;;;;;;5051487;28;1901;-50
2022/11/16 14:07:53;;;;;;;;;;;;;;;;;;5051679;28;2030;-50
2022/11/16 14:10:37;;;;;;;;;;;;;;;;;;5051525;28;2387;-46
2022/11/16 14:13:05;;;;;;;;;;;;;;;;;;5051074;28;1916;-48
2022/11/16 14:15:32;;;;;;;;;;;;;;;;;;5051441;28;2015;-47
2022/11/16 14:18:08;;;;;;;;;;;;;;;;;;5051297;28;2149;-45
2022/11/16 14:20:42;;;;;;;;;;;;;;;;;;5051417;28;1979;-50
2022/11/16 14:23:18;;;;;;;;;;;;;;;;;;5050955;28;2106;-50
2022/11/16 14:25:54;;;;;;;;;;;;;;;;;;5051058;28;1916;-50
2022/11/16 14:28:29;;;;;;;;;;;;;;;;;;5051081;28;2010;-49
2022/11/16 14:31:06;;;;;;;;;;;;;;;;;;5051471;28;1923;-50
2022/11/16 14:33:34;;;;;;;;;;;;;;;;;;5051133;28;1832;-50
2022/11/16 14:36:03;;;;;;;;;;;;;;;;;;5051020;28;1996;-50
2022/11/16 14:38:38;;;;;;;;;;;;;;;;;;5050544;28;2048;-50
2022/11/16 14:41:10;;;;;;;;;;;;;;;;;;5051010;28;1886;-46
2022/11/16 14:43:45;;;;;;;;;;;;;;;;;;5050745;28;1909;-51
2022/11/16 14:46:21;;;;;;;;;;;;;;;;;;5051051;28;1970;-47
2022/11/16 14:48:49;;;;;;;;;;;;;;;;;;5050781;28;1911;-50
2022/11/16 14:51:16;;;;;;;;;;;;;;;;;;5051135;28;1884;-47
2022/11/16 14:53:49;;;;;;;;;;;;;;;;;;5050759;28;2177;-46
2022/11/16 14:56:17;;;;;;;;;;;;;;;;;;5049809;28;1967;-49
2022/11/16 14:58:51;;;;;;;;;;;;;;;;;;5050765;28;2003;-47
2022/11/16 15:01:20;;;;;;;;;;;;;;;;;;5050882;28;1714;-48
2022/11/16 15:04:05;;;;;;;;;;;;;;;;;;5050684;28;2102;-51
2022/11/16 15:06:43;;;;;;;;;;;;;;;;;;5050816;28;1519;-51
2022/11/16 15:09:18;;;;;;;;;;;;;;;;;;5050814;28;1916;-52
2022/11/16 15:14:36;;;;;;;;;;;;;;;;;;5050949;28;1853;-49
2022/11/16 15:17:05;;;;;;;;;;;;;;;;;;5050507;28;2001;-52
2022/11/16 15:19:32;;;;;;;;;;;;;;;;;;5050844;28;2076;-55
2022/11/16 15:22:00;;;;;;;;;;;;;;;;;;5050447;28;1777;-51
2022/11/16 15:24:32;;;;;;;;;;;;;;;;;;5050826;28;2109;-47
2022/11/16 15:27:02;;;;;;;;;;;;;;;;;;5050626;28;2106;-48
2022/11/16 15:29:29;;;;;;;;;;;;;;;;;;5050400;28;2138;-49
2022/11/16 15:31:56;;;;;;;;;;;;;;;;;;5050894;28;1993;-51
2022/11/16 15:34:23;;;;;;;;;;;;;;;;;;5050494;28;2091;-47
2022/11/16 15:36:51;;;;;;;;;;;;;;;;;;5050445;28;1994;-49
2022/11/16 15:39:21;;;;;;;;;;;;;;;;;;5050683;28;1879;-48
2022/11/16 15:41:50;;;;;;;;;;;;;;;;;;5050585;28;1936;-51
2022/11/16 15:44:19;;;;;;;;;;;;;;;;;;5050307;28;2132;-48
2022/11/16 15:46:47;;;;;;;;;;;;;;;;;;5050773;28;1913;-47
2022/11/16 15:49:17;;;;;;;;;;;;;;;;;;5052389;28;1921;-50
2022/11/16 15:51:45;;;;;;;;;;;;;;;;;;5053750;28;2088;-49
2022/11/16 15:54:13;;;;;;;;;;;;;;;;;;5053915;28;1949;-51
2022/11/16 15:56:40;;;;;;;;;;;;;;;;;;5053850;28;1976;-48
2022/11/16 15:59:28;;;;;;;;;;;;;;;;;;5053684;28;2019;-50
2022/11/16 16:01:56;;;;;;;;;;;;;;;;;;5053848;28;2011;-47
2022/11/16 16:04:24;;;;;;;;;;;;;;;;;;5053752;28;2003;-49
2022/11/16 16:06:56;;;;;;;;;;;;;;;;;;5053641;28;2026;-49
2022/11/16 16:09:29;;;;;;;;;;;;;;;;;;5053616;28;2044;-47
2022/11/16 16:12:14;;;;;;;;;;;;;;;;;;5053579;28;1891;-48
2022/11/16 16:14:42;;;;;;;;;;;;;;;;;;5053475;28;2138;-49
2022/11/16 16:17:11;;;;;;;;;;;;;;;;;;5053675;28;1987;-47
2022/11/16 16:19:58;;;;;;;;;;;;;;;;;;5053340;28;1802;-49
2022/11/16 16:22:36;;;;;;;;;;;;;;;;;;5053449;28;2038;-50
2022/11/16 16:25:04;;;;;;;;;;;;;;;;;;5053377;28;1925;-52
2022/11/16 16:27:37;;;;;;;;;;;;;;;;;;5053272;28;2375;-48
2022/11/16 16:30:05;;;;;;;;;;;;;;;;;;5053273;28;1894;-49
2022/11/16 16:32:33;;;;;;;;;;;;;;;;;;5053249;28;1823;-51
2022/11/16 16:35:03;;;;;;;;;;;;;;;;;;5052810;28;2009;-47
2022/11/16 16:37:32;;;;;;;;;;;;;;;;;;5052926;28;1975;-51
2022/11/16 16:39:59;;;;;;;;;;;;;;;;;;5052983;28;2170;-50
2022/11/16 16:42:27;;;;;;;;;;;;;;;;;;5053194;28;1854;-49
2022/11/16 16:44:57;;;;;;;;;;;;;;;;;;5053044;28;1638;-51
2022/11/16 16:47:25;;;;;;;;;;;;;;;;;;5052923;28;1967;-50
2022/11/16 16:49:53;;;;;;;;;;;;;;;;;;5053119;28;2125;-48
2022/11/16 16:52:20;;;;;;;;;;;;;;;;;;5052827;28;1942;-47
2022/11/16 16:54:48;;;;;;;;;;;;;;;;;;5052814;28;1892;-48
2022/11/16 16:57:16;;;;;;;;;;;;;;;;;;5052911;28;1903;-47
2022/11/16 16:59:46;;;;;;;;;;;;;;;;;;5051673;28;1912;-47
2022/11/16 17:02:15;;;;;;;;;;;;;;;;;;5052601;28;1888;-51
2022/11/16 17:04:45;;;;;;;;;;;;;;;;;;5052484;28;2351;-49
2022/11/16 17:07:14;;;;;;;;;;;;;;;;;;5052832;28;2074;-48
2022/11/16 17:09:42;;;;;;;;;;;;;;;;;;5052254;28;1318;-48
2022/11/16 17:12:10;;;;;;;;;;;;;;;;;;5052389;28;2026;-48
2022/11/16 17:14:37;;;;;;;;;;;;;;;;;;5052452;28;2127;-48
2022/11/16 17:17:05;;;;;;;;;;;;;;;;;;5052256;28;2221;-49
2022/11/16 17:19:33;;;;;;;;;;;;;;;;;;5052535;28;1973;-49
2022/11/16 17:22:01;;;;;;;;;;;;;;;;;;5052188;28;2007;-49
2022/11/16 17:24:28;;;;;;;;;;;;;;;;;;5052507;28;2109;-47
2022/11/16 17:26:56;;;;;;;;;;;;;;;;;;5051928;28;2051;-49
2022/11/16 17:29:24;;;;;;;;;;;;;;;;;;5052156;28;2013;-50
2022/11/16 17:31:52;;;;;;;;;;;;;;;;;;5052247;28;1905;-50
2022/11/16 17:34:20;;;;;;;;;;;;;;;;;;5051854;28;1917;-47
2022/11/16 17:36:48;;;;;;;;;;;;;;;;;;5051792;28;1973;-47
2022/11/16 17:39:15;;;;;;;;;;;;;;;;;;5051647;28;1941;-46
2022/11/16 17:41:44;;;;;;;;;;;;;;;;;;5051859;28;1951;-48
2022/11/16 17:44:16;;;;;;;;;;;;;;;;;;5050692;28;1849;-47
2022/11/16 17:46:48;;;;;;;;;;;;;;;;;;5051555;28;1866;-46
2022/11/16 17:49:18;;;;;;;;;;;;;;;;;;5051705;28;2050;-49
2022/11/16 17:51:49;;;;;;;;;;;;;;;;;;5051641;28;2018;-48
2022/11/16 17:54:17;;;;;;;;;;;;;;;;;;5051523;28;1990;-46
2022/11/16 17:56:45;;;;;;;;;;;;;;;;;;5051609;28;2119;-48
2022/11/16 17:59:13;;;;;;;;;;;;;;;;;;5051518;28;1990;-47
2022/11/16 18:01:41;;;;;;;;;;;;;;;;;;5051457;28;1879;-46
2022/11/16 18:04:09;;;;;;;;;;;;;;;;;;5051386;28;2014;-46
2022/11/16 18:06:36;;;;;;;;;;;;;;;;;;5051419;28;1857;-47
2022/11/16 18:09:05;;;;;;;;;;;;;;;;;;5051479;28;1977;-47
2022/11/16 18:11:33;;;;;;;;;;;;;;;;;;5050881;28;2069;-49
2022/11/16 18:14:04;;;;;;;;;;;;;;;;;;5051220;28;1610;-47
2022/11/16 18:16:35;;;;;;;;;;;;;;;;;;5051188;28;2011;-47